GCHI/VDE METAR and TAF weather

Enter ICAO airport designator
Station Type Date Time Source
GCHI METAR 2020/06/02 19:00 UTC NOAA

GCHI 021900Z AUTO 06006KT 340V100 9999 BKN046 BKN050 23/18 Q1014


Station Type Date Time Source
GCHI Decoded METAR 2020/06/02 19:00 UTC NOAA

Hierro / Aeropuerto, Spain (GCHI) 27-49N 017-53W 32M
Jun 02, 2020 - 03:00 PM EDT / 2020.06.02 1900 UTC
Wind: from the ENE (060 degrees) at 7 MPH (6 KT) (direction variable):0
Visibility: greater than 7 mile(s):0
Sky conditions: mostly cloudy
Temperature: 73 F (23 C)
Dew Point: 64 F (18 C)
Relative Humidity: 73%
Pressure (altimeter): 29.94 in. Hg (1014 hPa)
ob: GCHI 021900Z AUTO 06006KT 340V100 9999 BKN046 BKN050 23/18 Q1014
cycle: 19

Station Type Date Time Source
GCHI TAF 2020/06/02 15:00 UTC NOAA

TAF GCHI 021400Z 0215/0315 10007KT 9999 BKN030 TX25/0314Z TN20/0306Z PROB30
TEMPO 0300/0309 4900 RA

Example: see airport list